X  CloseMetar Aviation Weather Data     KIAH George Bush Intercontinental / Houston

Temperature

75°F Temperature

55°F Dewpoint

50% Humidity



Wind

22 MPH

35 KM/H

10 M/S

19 KTS



120°
East South
East
Current Conditions

Partly Cloudy Partly Cloudy
Pressure 1016.92 (hPa) - 30.03 (in)
Visibility 10 (mi) - 16.1 (km)
Airport
Airport-code KIAH

Location George Bush Intercontinental / Houston 14 (mi)

Metar:
KIAH 232153Z 12019G26KT 10SM FEW060 24/13 A3003 RMK AO2 PK WND 13026/2152 SLP170 T02440128

Time: 10-23-2019 16:53